sensor_id;sensor_type;location;lat;lon;timestamp;pressure;altitude;pressure_sealevel;temperature;humidity
65175;BME280;51761;42.126;24.752;2022-11-12T00:00:56;101065.81;;;11.53;78.94
65175;BME280;51761;42.126;24.752;2022-11-12T00:03:23;101074.19;;;11.46;79.21
65175;BME280;51761;42.126;24.752;2022-11-12T00:05:49;101065.00;;;11.49;78.71
65175;BME280;51761;42.126;24.752;2022-11-12T00:08:16;101039.31;;;11.23;78.82
65175;BME280;51761;42.126;24.752;2022-11-12T00:10:43;101062.19;;;11.42;79.13
65175;BME280;51761;42.126;24.752;2022-11-12T00:13:08;101077.72;;;11.33;80.63
65175;BME280;51761;42.126;24.752;2022-11-12T00:15:34;101070.03;;;11.16;82.03
65175;BME280;51761;42.126;24.752;2022-11-12T00:18:00;101026.66;;;10.72;83.76
65175;BME280;51761;42.126;24.752;2022-11-12T00:20:26;101059.13;;;10.94;83.21
65175;BME280;51761;42.126;24.752;2022-11-12T00:22:51;101067.50;;;10.87;85.62
65175;BME280;51761;42.126;24.752;2022-11-12T00:25:17;101067.50;;;10.87;84.74
65175;BME280;51761;42.126;24.752;2022-11-12T00:27:42;101069.06;;;10.81;85.14
65175;BME280;51761;42.126;24.752;2022-11-12T00:30:08;101046.16;;;10.61;85.05
65175;BME280;51761;42.126;24.752;2022-11-12T00:32:37;101064.19;;;10.71;85.60
65175;BME280;51761;42.126;24.752;2022-11-12T00:35:04;101064.59;;;10.73;84.90
65175;BME280;51761;42.126;24.752;2022-11-12T00:37:30;101069.41;;;10.76;85.28
65175;BME280;51761;42.126;24.752;2022-11-12T00:39:55;101069.88;;;10.85;83.87
65175;BME280;51761;42.126;24.752;2022-11-12T00:42:21;101065.91;;;10.93;83.48
65175;BME280;51761;42.126;24.752;2022-11-12T00:44:46;101053.13;;;10.92;82.90
65175;BME280;51761;42.126;24.752;2022-11-12T00:47:14;101032.75;;;10.91;82.82
65175;BME280;51761;42.126;24.752;2022-11-12T00:49:40;101048.00;;;10.97;82.64
65175;BME280;51761;42.126;24.752;2022-11-12T00:52:05;101024.78;;;10.90;81.67
65175;BME280;51761;42.126;24.752;2022-11-12T00:54:31;101051.25;;;11.13;82.40
65175;BME280;51761;42.126;24.752;2022-11-12T00:56:56;101052.06;;;11.17;82.11
65175;BME280;51761;42.126;24.752;2022-11-12T00:59:22;101051.72;;;11.22;81.88
65175;BME280;51761;42.126;24.752;2022-11-12T01:01:47;101047.31;;;11.24;81.44
65175;BME280;51761;42.126;24.752;2022-11-12T01:04:14;100982.88;;;10.97;79.76
65175;BME280;51761;42.126;24.752;2022-11-12T01:06:39;101005.72;;;11.12;79.88
65175;BME280;51761;42.126;24.752;2022-11-12T01:09:06;101045.38;;;11.39;80.01
65175;BME280;51761;42.126;24.752;2022-11-12T01:11:31;101043.00;;;11.44;80.11
65175;BME280;51761;42.126;24.752;2022-11-12T01:13:59;101031.81;;;11.44;79.13
65175;BME280;51761;42.126;24.752;2022-11-12T01:16:29;101028.19;;;11.37;79.89
65175;BME280;51761;42.126;24.752;2022-11-12T01:18:57;101030.59;;;11.45;79.26
65175;BME280;51761;42.126;24.752;2022-11-12T01:21:25;101030.63;;;11.52;79.06
65175;BME280;51761;42.126;24.752;2022-11-12T01:23:51;101027.00;;;11.45;79.06
65175;BME280;51761;42.126;24.752;2022-11-12T01:26:19;101031.09;;;11.58;79.18
65175;BME280;51761;42.126;24.752;2022-11-12T01:28:44;101024.28;;;11.59;81.45
65175;BME280;51761;42.126;24.752;2022-11-12T01:31:26;101026.66;;;11.60;82.40
65175;BME280;51761;42.126;24.752;2022-11-12T01:33:55;101029.50;;;11.64;81.65
65175;BME280;51761;42.126;24.752;2022-11-12T01:36:21;101018.31;;;11.74;78.93
65175;BME280;51761;42.126;24.752;2022-11-12T01:38:48;101010.31;;;11.76;78.62
65175;BME280;51761;42.126;24.752;2022-11-12T01:41:20;100982.69;;;11.57;77.41
65175;BME280;51761;42.126;24.752;2022-11-12T01:43:47;100926.25;;;11.27;77.39
65175;BME280;51761;42.126;24.752;2022-11-12T01:46:23;100985.94;;;11.66;77.11
65175;BME280;51761;42.126;24.752;2022-11-12T01:48:53;100993.13;;;11.67;77.23
65175;BME280;51761;42.126;24.752;2022-11-12T01:51:22;101011.94;;;11.84;76.56
65175;BME280;51761;42.126;24.752;2022-11-12T01:53:54;101020.31;;;11.74;78.32
65175;BME280;51761;42.126;24.752;2022-11-12T01:56:22;100998.22;;;11.48;80.91
65175;BME280;51761;42.126;24.752;2022-11-12T01:58:51;101017.50;;;11.60;81.94
65175;BME280;51761;42.126;24.752;2022-11-12T02:01:19;101017.09;;;11.72;82.10
65175;BME280;51761;42.126;24.752;2022-11-12T02:03:45;101019.13;;;11.71;82.43
65175;BME280;51761;42.126;24.752;2022-11-12T02:06:12;101014.28;;;11.61;83.03
65175;BME280;51761;42.126;24.752;2022-11-12T02:08:39;100989.84;;;11.44;83.39
65175;BME280;51761;42.126;24.752;2022-11-12T02:11:15;101012.25;;;11.55;83.93
65175;BME280;51761;42.126;24.752;2022-11-12T02:13:42;101019.84;;;11.51;84.54
65175;BME280;51761;42.126;24.752;2022-11-12T02:16:40;101015.00;;;11.37;85.67
65175;BME280;51761;42.126;24.752;2022-11-12T02:19:12;101014.25;;;11.54;85.48
65175;BME280;51761;42.126;24.752;2022-11-12T02:21:38;101016.69;;;11.56;85.69
65175;BME280;51761;42.126;24.752;2022-11-12T02:26:43;100985.41;;;11.33;85.85
65175;BME280;51761;42.126;24.752;2022-11-12T02:29:10;101013.03;;;11.48;85.97
65175;BME280;51761;42.126;24.752;2022-11-12T02:31:36;101015.50;;;11.57;86.36
65175;BME280;51761;42.126;24.752;2022-11-12T02:34:01;101020.63;;;11.51;86.73
65175;BME280;51761;42.126;24.752;2022-11-12T02:36:27;101025.44;;;11.54;87.37
65175;BME280;51761;42.126;24.752;2022-11-12T02:38:53;101029.44;;;11.50;87.57
65175;BME280;51761;42.126;24.752;2022-11-12T02:41:19;101023.81;;;11.39;88.20
65175;BME280;51761;42.126;24.752;2022-11-12T02:43:44;100993.38;;;11.20;88.59
65175;BME280;51761;42.126;24.752;2022-11-12T02:46:10;101031.78;;;11.37;88.71
65175;BME280;51761;42.126;24.752;2022-11-12T02:48:36;101025.34;;;11.33;88.36
65175;BME280;51761;42.126;24.752;2022-11-12T02:51:02;101000.94;;;11.20;88.60
65175;BME280;51761;42.126;24.752;2022-11-12T02:53:27;101020.94;;;11.25;89.93
65175;BME280;51761;42.126;24.752;2022-11-12T02:55:53;100994.91;;;11.04;90.22
65175;BME280;51761;42.126;24.752;2022-11-12T02:58:18;100993.31;;;11.06;90.56
65175;BME280;51761;42.126;24.752;2022-11-12T03:00:47;101016.94;;;11.23;90.55
65175;BME280;51761;42.126;24.752;2022-11-12T03:03:13;100995.31;;;11.13;88.61
65175;BME280;51761;42.126;24.752;2022-11-12T03:05:38;101022.16;;;11.28;88.07
65175;BME280;51761;42.126;24.752;2022-11-12T03:08:06;101020.91;;;11.18;88.36
65175;BME280;51761;42.126;24.752;2022-11-12T03:10:32;101025.34;;;11.26;88.23
65175;BME280;51761;42.126;24.752;2022-11-12T03:12:59;100998.47;;;11.04;88.71
65175;BME280;51761;42.126;24.752;2022-11-12T03:15:26;101025.69;;;11.14;89.75
65175;BME280;51761;42.126;24.752;2022-11-12T03:17:52;101026.44;;;11.04;90.44
65175;BME280;51761;42.126;24.752;2022-11-12T03:20:18;101032.44;;;11.03;91.12
65175;BME280;51761;42.126;24.752;2022-11-12T03:22:57;101026.03;;;10.99;91.89
65175;BME280;51761;42.126;24.752;2022-11-12T03:25:23;101024.41;;;10.95;91.94
65175;BME280;51761;42.126;24.752;2022-11-12T03:28:13;101026.03;;;10.99;92.34
65175;BME280;51761;42.126;24.752;2022-11-12T03:30:41;101025.63;;;11.00;92.17
65175;BME280;51761;42.126;24.752;2022-11-12T03:33:08;100990.34;;;10.72;92.33
65175;BME280;51761;42.126;24.752;2022-11-12T03:35:35;101023.19;;;10.89;92.09
65175;BME280;51761;42.126;24.752;2022-11-12T03:38:01;100995.16;;;10.78;91.07
65175;BME280;51761;42.126;24.752;2022-11-12T03:40:28;101020.41;;;10.92;90.54
65175;BME280;51761;42.126;24.752;2022-11-12T03:42:55;101008.75;;;10.80;89.93
65175;BME280;51761;42.126;24.752;2022-11-12T03:45:23;100993.94;;;10.76;90.03
65175;BME280;51761;42.126;24.752;2022-11-12T03:47:50;101031.69;;;11.09;89.66
65175;BME280;51761;42.126;24.752;2022-11-12T03:50:18;101032.00;;;10.98;90.14
65175;BME280;51761;42.126;24.752;2022-11-12T03:52:45;101031.63;;;11.02;90.46
65175;BME280;51761;42.126;24.752;2022-11-12T03:55:11;101008.78;;;10.87;90.52
65175;BME280;51761;42.126;24.752;2022-11-12T03:57:37;101035.69;;;11.15;89.97
65175;BME280;51761;42.126;24.752;2022-11-12T04:00:04;101028.06;;;11.09;90.11
65175;BME280;51761;42.126;24.752;2022-11-12T04:02:30;101025.66;;;11.04;90.77
65175;BME280;51761;42.126;24.752;2022-11-12T04:04:56;101019.66;;;11.05;90.79
65175;BME280;51761;42.126;24.752;2022-11-12T04:07:40;101014.88;;;11.06;90.08
65175;BME280;51761;42.126;24.752;2022-11-12T04:10:24;101030.88;;;11.16;90.20
65175;BME280;51761;42.126;24.752;2022-11-12T04:12:50;101028.47;;;11.07;90.71
65175;BME280;51761;42.126;24.752;2022-11-12T04:15:34;101032.06;;;11.08;91.14
65175;BME280;51761;42.126;24.752;2022-11-12T04:17:59;101031.66;;;11.06;91.94
65175;BME280;51761;42.126;24.752;2022-11-12T04:20:43;101022.84;;;11.04;91.96
65175;BME280;51761;42.126;24.752;2022-11-12T04:23:27;101026.84;;;11.03;91.99
65175;BME280;51761;42.126;24.752;2022-11-12T04:25:52;101023.63;;;11.04;91.77
65175;BME280;51761;42.126;24.752;2022-11-12T04:28:36;101026.44;;;11.04;91.84
65175;BME280;51761;42.126;24.752;2022-11-12T04:31:02;101011.25;;;10.95;92.04
65175;BME280;51761;42.126;24.752;2022-11-12T04:33:27;101027.31;;;11.15;91.57
65175;BME280;51761;42.126;24.752;2022-11-12T04:35:53;101023.31;;;11.16;91.92
65175;BME280;51761;42.126;24.752;2022-11-12T04:38:18;101012.44;;;10.98;92.27
65175;BME280;51761;42.126;24.752;2022-11-12T04:40:44;101034.91;;;11.18;91.67
65175;BME280;51761;42.126;24.752;2022-11-12T04:43:27;101022.09;;;11.14;91.66
65175;BME280;51761;42.126;24.752;2022-11-12T04:46:11;101022.00;;;10.97;92.26
65175;BME280;51761;42.126;24.752;2022-11-12T04:48:37;101047.16;;;10.93;92.51
65175;BME280;51761;42.126;24.752;2022-11-12T04:51:04;101023.03;;;10.64;92.57
65175;BME280;51761;42.126;24.752;2022-11-12T04:53:49;101059.91;;;10.91;91.47
65175;BME280;51761;42.126;24.752;2022-11-12T04:56:15;101057.13;;;10.91;91.74
65175;BME280;51761;42.126;24.752;2022-11-12T04:58:40;101033.91;;;10.83;91.52
65175;BME280;51761;42.126;24.752;2022-11-12T05:01:06;101041.41;;;10.69;92.01
65175;BME280;51761;42.126;24.752;2022-11-12T05:03:31;101069.88;;;10.85;92.41
65175;BME280;51761;42.126;24.752;2022-11-12T05:06:01;101067.09;;;10.85;92.79
65175;BME280;51761;42.126;24.752;2022-11-12T05:08:26;101067.44;;;10.80;91.82
65175;BME280;51761;42.126;24.752;2022-11-12T05:10:52;101045.28;;;10.50;92.38
65175;BME280;51761;42.126;24.752;2022-11-12T05:13:17;101046.81;;;10.41;93.30
65175;BME280;51761;42.126;24.752;2022-11-12T05:15:43;101038.41;;;10.37;92.88
65175;BME280;51761;42.126;24.752;2022-11-12T05:18:08;101072.47;;;10.57;93.23
65175;BME280;51761;42.126;24.752;2022-11-12T05:20:34;101066.75;;;10.39;93.82
65175;BME280;51761;42.126;24.752;2022-11-12T05:23:00;101073.19;;;10.47;93.66
65175;BME280;51761;42.126;24.752;2022-11-12T05:25:25;101066.34;;;10.37;94.14
65175;BME280;51761;42.126;24.752;2022-11-12T05:27:51;101069.50;;;10.36;94.29
65175;BME280;51761;42.126;24.752;2022-11-12T05:30:16;101080.59;;;10.25;94.66
65175;BME280;51761;42.126;24.752;2022-11-12T05:32:42;101094.28;;;10.37;94.75
65175;BME280;51761;42.126;24.752;2022-11-12T05:35:08;101093.00;;;10.28;95.38
65175;BME280;51761;42.126;24.752;2022-11-12T05:37:33;101098.16;;;10.29;94.70
65175;BME280;51761;42.126;24.752;2022-11-12T05:39:58;101093.34;;;10.23;95.94
65175;BME280;51761;42.126;24.752;2022-11-12T05:42:24;101110.09;;;10.23;96.92
65175;BME280;51761;42.126;24.752;2022-11-12T05:44:49;101107.06;;;10.38;95.96
65175;BME280;51761;42.126;24.752;2022-11-12T05:47:15;101083.31;;;10.18;96.13
65175;BME280;51761;42.126;24.752;2022-11-12T05:49:41;101119.06;;;10.42;95.46
65175;BME280;51761;42.126;24.752;2022-11-12T05:52:06;101129.31;;;10.31;95.95
65175;BME280;51761;42.126;24.752;2022-11-12T05:54:31;101129.34;;;10.35;96.15
65175;BME280;51761;42.126;24.752;2022-11-12T05:56:57;101139.63;;;10.24;96.52
65175;BME280;51761;42.126;24.752;2022-11-12T05:59:22;101143.97;;;10.21;97.72
65175;BME280;51761;42.126;24.752;2022-11-12T06:01:48;101148.03;;;10.27;97.47
65175;BME280;51761;42.126;24.752;2022-11-12T06:04:14;101141.22;;;10.25;98.28
65175;BME280;51761;42.126;24.752;2022-11-12T06:06:40;101143.50;;;10.12;98.18
65175;BME280;51761;42.126;24.752;2022-11-12T06:09:07;101151.22;;;9.93;99.20
65175;BME280;51761;42.126;24.752;2022-11-12T06:11:33;101162.06;;;9.98;100.00
65175;BME280;51761;42.126;24.752;2022-11-12T06:13:59;101150.38;;;9.89;100.00
65175;BME280;51761;42.126;24.752;2022-11-12T06:16:25;101165.50;;;9.88;100.00
65175;BME280;51761;42.126;24.752;2022-11-12T06:18:50;101165.13;;;9.89;100.00
65175;BME280;51761;42.126;24.752;2022-11-12T06:21:16;101161.50;;;9.85;100.00
65175;BME280;51761;42.126;24.752;2022-11-12T06:23:46;101151.31;;;9.67;100.00
65175;BME280;51761;42.126;24.752;2022-11-12T06:26:12;101179.31;;;9.74;100.00
65175;BME280;51761;42.126;24.752;2022-11-12T06:28:37;101188.84;;;9.73;100.00
65175;BME280;51761;42.126;24.752;2022-11-12T06:31:03;101183.56;;;9.64;100.00
65175;BME280;51761;42.126;24.752;2022-11-12T06:33:28;101172.19;;;9.47;100.00
65175;BME280;51761;42.126;24.752;2022-11-12T06:36:02;101188.56;;;9.52;100.00
65175;BME280;51761;42.126;24.752;2022-11-12T06:38:29;101189.59;;;9.40;100.00
65175;BME280;51761;42.126;24.752;2022-11-12T06:40:55;101195.56;;;9.39;100.00
65175;BME280;51761;42.126;24.752;2022-11-12T06:43:20;101146.97;;;9.11;100.00
65175;BME280;51761;42.126;24.752;2022-11-12T06:45:46;101193.09;;;9.34;100.00
65175;BME280;51761;42.126;24.752;2022-11-12T06:48:11;101202.34;;;9.38;100.00
65175;BME280;51761;42.126;24.752;2022-11-12T06:50:36;101162.47;;;9.08;100.00
65175;BME280;51761;42.126;24.752;2022-11-12T06:53:02;101202.94;;;9.25;100.00
65175;BME280;51761;42.126;24.752;2022-11-12T06:55:27;101166.72;;;8.99;100.00
65175;BME280;51761;42.126;24.752;2022-11-12T06:57:53;101175.84;;;8.99;99.95
65175;BME280;51761;42.126;24.752;2022-11-12T07:00:19;101203.22;;;9.20;100.00
65175;BME280;51761;42.126;24.752;2022-11-12T07:02:45;101198.06;;;9.18;100.00
65175;BME280;51761;42.126;24.752;2022-11-12T07:05:10;101151.91;;;8.95;99.99
65175;BME280;51761;42.126;24.752;2022-11-12T07:07:35;101197.19;;;9.14;99.59
65175;BME280;51761;42.126;24.752;2022-11-12T07:10:01;101178.75;;;9.06;97.89
65175;BME280;51761;42.126;24.752;2022-11-12T07:12:26;101207.97;;;9.16;99.02
65175;BME280;51761;42.126;24.752;2022-11-12T07:14:52;101213.09;;;9.14;99.19
65175;BME280;51761;42.126;24.752;2022-11-12T07:17:18;101210.75;;;9.16;100.00
65175;BME280;51761;42.126;24.752;2022-11-12T07:19:43;101167.56;;;9.03;98.09
65175;BME280;51761;42.126;24.752;2022-11-12T07:22:09;101205.81;;;9.32;98.73
65175;BME280;51761;42.126;24.752;2022-11-12T07:24:34;101177.19;;;9.09;98.78
65175;BME280;51761;42.126;24.752;2022-11-12T07:27:00;101186.31;;;9.06;98.65
65175;BME280;51761;42.126;24.752;2022-11-12T07:29:25;101209.19;;;9.18;99.42
65175;BME280;51761;42.126;24.752;2022-11-12T07:31:51;101213.59;;;9.19;98.79
65175;BME280;51761;42.126;24.752;2022-11-12T07:34:16;101216.44;;;9.23;99.78
65175;BME280;51761;42.126;24.752;2022-11-12T07:36:42;101220.88;;;9.27;99.50
65175;BME280;51761;42.126;24.752;2022-11-12T07:39:07;101205.50;;;9.11;98.58
65175;BME280;51761;42.126;24.752;2022-11-12T07:41:33;101214.59;;;9.08;98.83
65175;BME280;51761;42.126;24.752;2022-11-12T07:43:58;101222.16;;;9.07;100.00
65175;BME280;51761;42.126;24.752;2022-11-12T07:46:26;101221.00;;;9.08;98.76
65175;BME280;51761;42.126;24.752;2022-11-12T07:48:52;101220.41;;;8.96;98.95
65175;BME280;51761;42.126;24.752;2022-11-12T07:51:19;101222.38;;;8.95;100.00
65175;BME280;51761;42.126;24.752;2022-11-12T07:53:45;101168.44;;;8.58;100.00
65175;BME280;51761;42.126;24.752;2022-11-12T07:56:17;101170.91;;;8.63;100.00
65175;BME280;51761;42.126;24.752;2022-11-12T07:58:43;101182.16;;;8.70;100.00
65175;BME280;51761;42.126;24.752;2022-11-12T08:01:31;101217.97;;;8.94;100.00
65175;BME280;51761;42.126;24.752;2022-11-12T08:03:58;101219.97;;;8.94;100.00
65175;BME280;51761;42.126;24.752;2022-11-12T08:06:23;101149.38;;;8.60;100.00
65175;BME280;51761;42.126;24.752;2022-11-12T08:08:53;101217.53;;;8.92;100.00
65175;BME280;51761;42.126;24.752;2022-11-12T08:11:19;101172.63;;;8.71;100.00
65175;BME280;51761;42.126;24.752;2022-11-12T08:13:45;101220.75;;;8.94;100.00
65175;BME280;51761;42.126;24.752;2022-11-12T08:16:11;101191.38;;;8.74;100.00
65175;BME280;51761;42.126;24.752;2022-11-12T08:18:37;101214.06;;;8.99;100.00
65175;BME280;51761;42.126;24.752;2022-11-12T08:21:05;101219.25;;;9.00;100.00
65175;BME280;51761;42.126;24.752;2022-11-12T08:23:32;101224.91;;;9.04;100.00
65175;BME280;51761;42.126;24.752;2022-11-12T08:26:00;101219.69;;;9.02;99.96
65175;BME280;51761;42.126;24.752;2022-11-12T08:28:31;101227.38;;;9.09;100.00
65175;BME280;51761;42.126;24.752;2022-11-12T08:31:02;101232.19;;;9.12;99.57
65175;BME280;51761;42.126;24.752;2022-11-12T08:33:29;101234.19;;;9.11;99.98
65175;BME280;51761;42.126;24.752;2022-11-12T08:35:54;101231.41;;;9.11;98.82
65175;BME280;51761;42.126;24.752;2022-11-12T08:38:20;101238.50;;;9.09;98.19
65175;BME280;51761;42.126;24.752;2022-11-12T08:40:45;101242.13;;;9.09;100.00
65175;BME280;51761;42.126;24.752;2022-11-12T08:43:11;101217.88;;;8.87;98.24
65175;BME280;51761;42.126;24.752;2022-11-12T08:45:38;101240.97;;;9.14;96.90
65175;BME280;51761;42.126;24.752;2022-11-12T08:48:10;101227.94;;;8.95;99.41
65175;BME280;51761;42.126;24.752;2022-11-12T08:50:38;101204.53;;;8.77;98.63
65175;BME280;51761;42.126;24.752;2022-11-12T08:53:08;101249.91;;;9.00;98.93
65175;BME280;51761;42.126;24.752;2022-11-12T08:55:34;101240.75;;;9.00;98.52
65175;BME280;51761;42.126;24.752;2022-11-12T08:58:00;101250.97;;;8.92;99.18
65175;BME280;51761;42.126;24.752;2022-11-12T09:00:31;101245.84;;;8.94;99.43
65175;BME280;51761;42.126;24.752;2022-11-12T09:03:05;101240.81;;;9.03;99.61
65175;BME280;51761;42.126;24.752;2022-11-12T09:05:32;101242.47;;;9.08;100.00
65175;BME280;51761;42.126;24.752;2022-11-12T09:08:03;101214.44;;;8.97;100.00
65175;BME280;51761;42.126;24.752;2022-11-12T09:10:29;101243.06;;;9.20;100.00
65175;BME280;51761;42.126;24.752;2022-11-12T09:12:55;101238.75;;;9.23;99.93
65175;BME280;51761;42.126;24.752;2022-11-12T09:15:21;101236.38;;;9.50;100.00
65175;BME280;51761;42.126;24.752;2022-11-12T09:17:47;101234.69;;;9.72;99.07
65175;BME280;51761;42.126;24.752;2022-11-12T09:20:18;101200.22;;;9.57;99.74
65175;BME280;51761;42.126;24.752;2022-11-12T09:22:44;101229.44;;;9.67;100.00
65175;BME280;51761;42.126;24.752;2022-11-12T09:25:10;101232.41;;;9.81;99.98
65175;BME280;51761;42.126;24.752;2022-11-12T09:27:35;101204.31;;;9.67;99.76
65175;BME280;51761;42.126;24.752;2022-11-12T09:30:00;101229.75;;;9.91;99.98
65175;BME280;51761;42.126;24.752;2022-11-12T09:32:26;101200.84;;;9.77;99.31
65175;BME280;51761;42.126;24.752;2022-11-12T09:34:51;101230.22;;;9.97;99.35
65175;BME280;51761;42.126;24.752;2022-11-12T09:37:17;101200.22;;;9.90;99.06
65175;BME280;51761;42.126;24.752;2022-11-12T09:39:42;101232.78;;;10.09;99.01
65175;BME280;51761;42.126;24.752;2022-11-12T09:42:12;101202.69;;;9.95;98.63
65175;BME280;51761;42.126;24.752;2022-11-12T09:44:41;101201.84;;;9.91;97.00
65175;BME280;51761;42.126;24.752;2022-11-12T09:47:31;101214.91;;;10.17;97.36
65175;BME280;51761;42.126;24.752;2022-11-12T09:52:44;101197.72;;;9.82;96.10
65175;BME280;51761;42.126;24.752;2022-11-12T09:55:17;101223.28;;;10.13;98.07
65175;BME280;51761;42.126;24.752;2022-11-12T09:57:45;101220.84;;;10.12;95.96
65175;BME280;51761;42.126;24.752;2022-11-12T10:00:20;101227.66;;;10.14;93.91
65175;BME280;51761;42.126;24.752;2022-11-12T10:03:04;101228.81;;;10.10;94.98
65175;BME280;51761;42.126;24.752;2022-11-12T10:05:40;101236.41;;;10.13;95.75
65175;BME280;51761;42.126;24.752;2022-11-12T10:14:47;101220.97;;;10.22;97.68
65175;BME280;51761;42.126;24.752;2022-11-12T10:20:36;101225.00;;;10.25;97.10
65175;BME280;51761;42.126;24.752;2022-11-12T10:23:15;101216.38;;;10.04;96.47
65175;BME280;51761;42.126;24.752;2022-11-12T10:25:43;101218.53;;;10.17;95.22
65175;BME280;51761;42.126;24.752;2022-11-12T10:28:33;101199.94;;;9.99;95.69
65175;BME280;51761;42.126;24.752;2022-11-12T10:31:15;101223.69;;;10.15;97.01
65175;BME280;51761;42.126;24.752;2022-11-12T10:33:42;101228.56;;;10.22;97.34
65175;BME280;51761;42.126;24.752;2022-11-12T10:38:36;101202.53;;;10.14;95.82
65175;BME280;51761;42.126;24.752;2022-11-12T10:41:27;101238.38;;;10.45;96.42
65175;BME280;51761;42.126;24.752;2022-11-12T10:44:03;101233.22;;;10.47;95.47
65175;BME280;51761;42.126;24.752;2022-11-12T10:46:33;101231.66;;;10.50;96.25
65175;BME280;51761;42.126;24.752;2022-11-12T10:53:55;101218.09;;;10.52;96.49
65175;BME280;51761;42.126;24.752;2022-11-12T10:59:15;101219.47;;;10.72;96.16
65175;BME280;51761;42.126;24.752;2022-11-12T11:01:42;101213.47;;;10.70;95.52
65175;BME280;51761;42.126;24.752;2022-11-12T11:04:21;101211.03;;;10.65;95.91
65175;BME280;51761;42.126;24.752;2022-11-12T11:07:15;101233.94;;;10.41;94.40
65175;BME280;51761;42.126;24.752;2022-11-12T11:09:59;101233.69;;;10.20;95.23
65175;BME280;51761;42.126;24.752;2022-11-12T11:17:35;101226.75;;;10.40;93.39
65175;BME280;51761;42.126;24.752;2022-11-12T11:20:05;101222.69;;;10.34;95.77
65175;BME280;51761;42.126;24.752;2022-11-12T11:25:16;101221.03;;;10.29;95.53
65175;BME280;51761;42.126;24.752;2022-11-12T11:30:30;101212.28;;;10.31;95.15
65175;BME280;51761;42.126;24.752;2022-11-12T11:39:05;101224.16;;;10.21;96.80
65175;BME280;51761;42.126;24.752;2022-11-12T11:41:53;101208.16;;;10.18;95.07
65175;BME280;51761;42.126;24.752;2022-11-12T12:00:29;101207.59;;;10.42;98.11
65175;BME280;51761;42.126;24.752;2022-11-12T12:06:23;101175.47;;;10.18;97.27
65175;BME280;51761;42.126;24.752;2022-11-12T12:09:22;101207.53;;;10.35;98.11
65175;BME280;51761;42.126;24.752;2022-11-12T12:23:52;101193.38;;;10.54;98.61
65175;BME280;51761;42.126;24.752;2022-11-12T12:26:20;101194.94;;;10.51;100.00
65175;BME280;51761;42.126;24.752;2022-11-12T12:29:13;101190.59;;;10.54;100.00
65175;BME280;51761;42.126;24.752;2022-11-12T12:34:35;101192.53;;;10.50;100.00
65175;BME280;51761;42.126;24.752;2022-11-12T12:42:19;101155.97;;;10.22;99.14
65175;BME280;51761;42.126;24.752;2022-11-12T12:44:51;101187.28;;;10.41;98.81
65175;BME280;51761;42.126;24.752;2022-11-12T12:47:25;101154.31;;;10.17;99.93
65175;BME280;51761;42.126;24.752;2022-11-12T12:49:54;101197.34;;;10.53;99.50
65175;BME280;51761;42.126;24.752;2022-11-12T12:52:20;101198.88;;;10.47;99.58
65175;BME280;51761;42.126;24.752;2022-11-12T13:02:54;101151.88;;;10.16;98.04
65175;BME280;51761;42.126;24.752;2022-11-12T13:05:31;101197.28;;;10.46;98.72
65175;BME280;51761;42.126;24.752;2022-11-12T13:08:06;101185.25;;;10.42;98.59
65175;BME280;51761;42.126;24.752;2022-11-12T13:15:48;101179.66;;;10.38;97.87
65175;BME280;51761;42.126;24.752;2022-11-12T13:21:14;101169.94;;;10.25;98.25
65175;BME280;51761;42.126;24.752;2022-11-12T13:23:54;101182.38;;;10.31;99.38
65175;BME280;51761;42.126;24.752;2022-11-12T13:32:30;101182.47;;;10.42;98.09
65175;BME280;51761;42.126;24.752;2022-11-12T13:37:44;101185.16;;;10.31;98.06
65175;BME280;51761;42.126;24.752;2022-11-12T13:40:38;101181.09;;;10.25;98.22
65175;BME280;51761;42.126;24.752;2022-11-12T13:43:09;101178.81;;;10.34;100.00
65175;BME280;51761;42.126;24.752;2022-11-12T13:50:52;101185.09;;;10.64;100.00
65175;BME280;51761;42.126;24.752;2022-11-12T13:53:22;101195.41;;;10.60;100.00
65175;BME280;51761;42.126;24.752;2022-11-12T13:55:51;101188.63;;;10.61;100.00
65175;BME280;51761;42.126;24.752;2022-11-12T13:58:19;101180.00;;;10.77;100.00
65175;BME280;51761;42.126;24.752;2022-11-12T14:00:51;101156.03;;;10.72;100.00
65175;BME280;51761;42.126;24.752;2022-11-12T14:03:18;101185.47;;;11.09;100.00
65175;BME280;51761;42.126;24.752;2022-11-12T14:05:47;101176.78;;;10.75;98.69
65175;BME280;51761;42.126;24.752;2022-11-12T14:08:28;101186.75;;;10.76;97.01
65175;BME280;51761;42.126;24.752;2022-11-12T14:24:38;101151.00;;;10.05;96.33
65175;BME280;51761;42.126;24.752;2022-11-12T14:27:20;101150.69;;;10.17;96.84
65175;BME280;51761;42.126;24.752;2022-11-12T14:29:46;101076.06;;;9.74;96.01
65175;BME280;51761;42.126;24.752;2022-11-12T14:32:12;101148.06;;;10.31;96.04
65175;BME280;51761;42.126;24.752;2022-11-12T14:34:37;101161.56;;;10.25;96.48
65175;BME280;51761;42.126;24.752;2022-11-12T14:37:03;101129.88;;;10.07;95.93
65175;BME280;51761;42.126;24.752;2022-11-12T14:39:29;101167.56;;;10.27;95.96
65175;BME280;51761;42.126;24.752;2022-11-12T14:41:57;101138.63;;;10.06;96.25
65175;BME280;51761;42.126;24.752;2022-11-12T14:44:27;101182.34;;;10.28;95.87
65175;BME280;51761;42.126;24.752;2022-11-12T14:46:56;101192.75;;;10.34;96.54
65175;BME280;51761;42.126;24.752;2022-11-12T14:52:15;101182.00;;;10.33;95.82
65175;BME280;51761;42.126;24.752;2022-11-12T14:54:46;101140.59;;;10.02;95.80
65175;BME280;51761;42.126;24.752;2022-11-12T14:57:43;101165.84;;;10.16;95.01